This is the latest recevied weather packets stored in our database for station/object KMASWX. If no packets are shown the sender has not sent any weather packets the latest 10 day(s).
| Time | Temp. | Humidity | Pressure | Rain* | Wind** | Luminosity | Snow |
|---|---|---|---|---|---|---|---|
| 1778100175 | 28.33° C | 22% | - | 0 mm | - | - | - |
| 1778099871 | 27.22° C | 26% | - | 0 mm | - | - | - |
| 1778099567 | 26.67° C | 28% | - | 0 mm | - | - | - |
| 1778099264 | 26.11° C | 28% | - | 0 mm | - | - | - |
| 1778098957 | 26.11° C | 28% | - | 0 mm | - | - | - |
| 1778098653 | 25° C | 31% | - | 0 mm | - | - | - |
| 1778098041 | 25.56° C | 30% | - | 0 mm | - | - | - |
| 1778097434 | 25° C | 31% | - | 0 mm | - | - | - |
| 1778097127 | 25° C | 31% | - | 0 mm | - | - | - |
| 1778096824 | 25° C | 30% | - | 0 mm | - | - | - |
| 1778096520 | 25.56° C | 30% | - | 0 mm | - | - | - |
| 1778095910 | 24.44° C | 33% | - | 0 mm | - | - | - |
| 1778095607 | 23.89° C | 34% | - | 0 mm | - | - | - |
| 1778095303 | 24.44° C | 34% | - | 0 mm | - | - | - |
| 1778095000 | 23.89° C | 34% | - | 0 mm | - | - | - |
| 1778094693 | 23.33° C | 35% | - | 0 mm | - | - | - |
| 1778094389 | 23.33° C | 36% | - | 0 mm | - | - | - |
| 1778094086 | 22.78° C | 37% | - | 0 mm | - | - | - |
| 1778093782 | 22.78° C | 37% | - | 0 mm | - | - | - |
| 1778093173 | 22.78° C | 38% | - | 0 mm | - | - | - |
| 1778092869 | 21.67° C | 40% | - | 0 mm | - | - | - |
| 1778092565 | 21.67° C | 40% | - | 0 mm | - | - | - |
| 1778092258 | 21.11° C | 40% | - | 0 mm | - | - | - |
| 1778091954 | 20.56° C | 41% | - | 0 mm | - | - | - |
| 1778091651 | 20.56° C | 42% | - | 0 mm | - | - | - |
* Rain latest 24 hours (hover to see other rain measurements)
** Current wind speed in m/s (hover to see current wind gust speed)